createdAt,value
2024-05-09T00:01:54.864Z,101197.02
2024-05-09T00:04:24.419Z,101198.48
2024-05-09T00:06:53.860Z,101199.55
2024-05-09T00:09:23.844Z,101200.58
2024-05-09T00:11:53.165Z,101198.24
2024-05-09T00:14:22.522Z,101200.16
2024-05-09T00:16:51.758Z,101198.10
2024-05-09T00:19:21.212Z,101198.16
2024-05-09T00:21:50.479Z,101195.48
2024-05-09T00:24:20.204Z,101183.30
2024-05-09T00:26:49.696Z,101196.18
2024-05-09T00:29:18.596Z,101195.52
2024-05-09T00:31:47.724Z,101197.56
2024-05-09T00:34:16.706Z,101200.08
2024-05-09T00:36:45.970Z,101199.77
2024-05-09T00:39:15.782Z,101201.45
2024-05-09T00:41:45.418Z,101198.31
2024-05-09T00:44:14.208Z,101198.49
2024-05-09T00:46:43.631Z,101193.98
2024-05-09T00:49:13.638Z,101195.67
2024-05-09T00:51:43.636Z,101190.02
2024-05-09T00:54:12.718Z,101188.45
2024-05-09T00:56:42.218Z,101187.16
2024-05-09T00:59:10.792Z,101181.92
2024-05-09T01:01:40.850Z,101183.71
2024-05-09T01:04:09.936Z,101186.52
2024-05-09T01:06:38.379Z,101186.52
2024-05-09T01:09:06.663Z,101194.67
2024-05-09T01:11:39.208Z,101195.30
2024-05-09T01:14:07.379Z,101196.25
2024-05-09T01:16:35.393Z,101191.33
2024-05-09T01:19:04.988Z,101192.48
2024-05-09T01:21:32.861Z,101187.70
2024-05-09T01:24:01.024Z,101186.18
2024-05-09T01:26:29.048Z,101188.34
2024-05-09T01:28:57.238Z,101189.77
2024-05-09T01:31:25.243Z,101186.79
2024-05-09T01:33:53.436Z,101186.88
2024-05-09T01:36:21.699Z,101188.62
2024-05-09T01:38:49.665Z,101191.13
2024-05-09T01:41:17.799Z,101191.39
2024-05-09T01:43:46.355Z,101195.45
2024-05-09T01:46:15.929Z,101193.29
2024-05-09T01:48:44.043Z,101190.69
2024-05-09T01:51:13.204Z,101190.63
2024-05-09T01:53:41.309Z,101192.53
2024-05-09T01:56:10.010Z,101193.23
2024-05-09T01:58:38.854Z,101194.20
2024-05-09T02:01:07.090Z,101205.17
2024-05-09T02:03:35.215Z,101206.14
2024-05-09T02:06:03.942Z,101207.20
2024-05-09T02:08:32.238Z,101210.23
2024-05-09T02:11:00.950Z,101211.56
2024-05-09T02:13:28.947Z,101212.98
2024-05-09T02:15:57.106Z,101209.56
2024-05-09T02:18:25.072Z,101209.73
2024-05-09T02:20:53.530Z,101209.30
2024-05-09T02:23:21.546Z,101210.52
2024-05-09T02:25:49.603Z,101212.98
2024-05-09T02:28:17.955Z,101212.80
2024-05-09T02:30:46.137Z,101216.52
2024-05-09T02:33:14.680Z,101212.63
2024-05-09T02:35:44.248Z,101208.44
2024-05-09T02:38:13.504Z,101208.11
2024-05-09T02:40:42.019Z,101200.37
2024-05-09T02:43:12.698Z,101205.68
2024-05-09T02:45:41.703Z,101202.08
2024-05-09T02:48:12.437Z,101206.24
2024-05-09T02:50:42.027Z,101201.07
2024-05-09T02:53:14.384Z,101200.58
2024-05-09T02:55:43.427Z,101201.14
2024-05-09T02:58:12.289Z,101200.74
2024-05-09T03:00:42.410Z,101201.86
2024-05-09T03:03:14.200Z,101206.66
2024-05-09T03:05:46.454Z,101205.04
2024-05-09T03:08:14.931Z,101203.77
2024-05-09T03:10:43.417Z,101207.98
2024-05-09T03:13:14.958Z,101207.60
2024-05-09T03:15:45.029Z,101205.98
2024-05-09T03:18:13.746Z,101206.45
2024-05-09T03:20:43.990Z,101209.04
2024-05-09T03:23:12.903Z,101209.45
2024-05-09T03:25:41.072Z,101207.94
2024-05-09T03:28:08.952Z,101210.81
2024-05-09T03:30:41.823Z,101209.56
2024-05-09T03:33:15.554Z,101212.05
2024-05-09T03:35:44.537Z,101210.01
2024-05-09T03:38:12.810Z,101211.52
2024-05-09T03:40:49.923Z,101214.71
2024-05-09T03:43:20.023Z,101215.92
2024-05-09T03:45:50.729Z,101217.25
2024-05-09T03:48:18.795Z,101220.50
2024-05-09T03:50:47.386Z,101219.15
2024-05-09T03:53:15.560Z,101219.01
2024-05-09T03:55:43.910Z,101222.54
2024-05-09T03:58:14.272Z,101222.52
2024-05-09T04:00:43.334Z,101224.23
2024-05-09T04:03:13.061Z,101228.65
2024-05-09T04:05:44.440Z,101224.34
2024-05-09T04:08:15.520Z,101223.45
2024-05-09T04:10:45.901Z,101230.09
2024-05-09T04:13:13.872Z,101231.35
2024-05-09T04:15:41.831Z,101229.63
2024-05-09T04:18:10.176Z,101229.93
2024-05-09T04:20:40.728Z,101224.98
2024-05-09T04:23:14.313Z,101228.41
2024-05-09T04:25:45.047Z,101230.63
2024-05-09T04:28:14.455Z,101233.14
2024-05-09T04:30:43.430Z,101229.00
2024-05-09T04:33:13.778Z,101234.93
2024-05-09T04:35:43.754Z,101229.02
2024-05-09T04:38:13.983Z,101232.04
2024-05-09T04:40:42.887Z,101234.06
2024-05-09T04:43:19.194Z,101234.58
2024-05-09T04:45:48.303Z,101232.11
2024-05-09T04:48:18.137Z,101230.48
2024-05-09T04:50:47.035Z,101230.73
2024-05-09T04:53:16.977Z,101227.20
2024-05-09T04:55:46.311Z,101223.56
2024-05-09T04:58:15.000Z,101225.21
2024-05-09T05:00:44.166Z,101222.95
2024-05-09T05:03:14.989Z,101224.46
2024-05-09T05:05:47.033Z,101222.31
2024-05-09T05:08:17.847Z,101218.73
2024-05-09T05:10:48.544Z,101218.61
2024-05-09T05:13:21.491Z,101220.65
2024-05-09T05:15:55.291Z,101219.09
2024-05-09T05:18:24.727Z,101218.60
2024-05-09T05:20:55.367Z,101215.61
2024-05-09T05:23:24.888Z,101218.83
2024-05-09T05:25:55.921Z,101221.95
2024-05-09T05:28:24.353Z,101224.02
2024-05-09T05:30:53.427Z,101223.79
2024-05-09T05:33:23.087Z,101222.64
2024-05-09T05:35:51.806Z,101217.38
2024-05-09T05:38:23.744Z,101214.16
2024-05-09T05:40:54.667Z,101215.20
2024-05-09T05:43:23.197Z,101221.28
2024-05-09T05:45:51.173Z,101216.58
2024-05-09T05:48:19.850Z,101218.71
2024-05-09T05:50:48.287Z,101220.87
2024-05-09T05:53:17.102Z,101219.95
2024-05-09T05:55:45.470Z,101216.17
2024-05-09T05:58:15.052Z,101218.36
2024-05-09T06:00:44.025Z,101218.44
2024-05-09T06:03:13.795Z,101224.04
2024-05-09T06:05:48.797Z,101225.14
2024-05-09T06:08:17.827Z,101223.50
2024-05-09T06:10:46.642Z,101224.51
2024-05-09T06:13:15.924Z,101228.32
2024-05-09T06:15:44.403Z,101227.77
2024-05-09T06:18:15.248Z,101232.48
2024-05-09T06:20:44.324Z,101237.36
2024-05-09T06:23:14.293Z,101241.37
2024-05-09T06:25:44.186Z,101238.13
2024-05-09T06:28:12.644Z,101235.42
2024-05-09T06:30:42.642Z,101232.59
2024-05-09T06:33:14.416Z,101230.96
2024-05-09T06:35:46.388Z,101234.66
2024-05-09T06:38:15.041Z,101236.62
2024-05-09T06:40:44.549Z,101236.41
2024-05-09T06:43:15.566Z,101238.65
2024-05-09T06:45:47.637Z,101236.76
2024-05-09T06:48:19.756Z,101237.09
2024-05-09T06:50:48.913Z,101235.09
2024-05-09T06:53:20.575Z,101227.71
2024-05-09T06:55:49.229Z,101236.83
2024-05-09T06:58:18.019Z,101237.23
2024-05-09T07:00:46.419Z,101235.52
2024-05-09T07:03:18.292Z,101214.67
2024-05-09T07:05:49.387Z,101240.21
2024-05-09T07:08:18.888Z,101237.77
2024-05-09T07:10:48.581Z,101233.14
2024-05-09T07:13:17.662Z,101235.08
2024-05-09T07:15:46.794Z,101221.95
2024-05-09T07:18:18.206Z,101236.66
2024-05-09T07:20:49.431Z,101232.11
2024-05-09T07:23:19.060Z,101230.89
2024-05-09T07:25:47.694Z,101227.33
2024-05-09T07:28:19.781Z,101214.96
2024-05-09T07:30:48.412Z,101226.20
2024-05-09T07:33:18.564Z,101224.79
2024-05-09T07:35:47.870Z,101228.27
2024-05-09T07:38:16.440Z,101231.67
2024-05-09T07:40:44.786Z,101230.50
2024-05-09T07:43:14.979Z,101233.14
2024-05-09T07:45:52.384Z,101231.63
2024-05-09T07:52:39.073Z,101232.05
2024-05-09T07:53:49.701Z,101225.69
2024-05-09T07:56:23.065Z,101224.19
2024-05-09T07:58:56.725Z,101219.93
2024-05-09T08:01:28.502Z,101218.15
2024-05-09T08:03:58.448Z,101215.19
2024-05-09T08:06:27.491Z,101213.73
2024-05-09T08:08:56.041Z,101211.79
2024-05-09T08:11:25.239Z,101214.29
2024-05-09T08:13:55.831Z,101215.92
2024-05-09T08:16:25.224Z,101217.15
2024-05-09T08:18:53.981Z,101215.05
2024-05-09T08:21:22.226Z,101212.20
2024-05-09T08:23:51.784Z,101211.40
2024-05-09T08:26:21.147Z,101207.34
2024-05-09T08:28:49.623Z,101209.18
2024-05-09T08:31:18.728Z,101208.67
2024-05-09T08:33:48.342Z,101209.39
2024-05-09T08:36:17.670Z,101209.89
2024-05-09T08:38:46.110Z,101210.77
2024-05-09T08:41:18.245Z,101207.60
2024-05-09T08:43:47.259Z,101207.84
2024-05-09T08:46:18.445Z,101206.72
2024-05-09T08:48:49.924Z,101203.89
2024-05-09T08:51:18.964Z,101204.41
2024-05-09T08:53:47.663Z,101205.86
2024-05-09T08:56:17.249Z,101208.62
2024-05-09T08:58:45.632Z,101207.62
2024-05-09T09:01:14.540Z,101207.14
2024-05-09T09:03:44.829Z,101203.66
2024-05-09T09:06:16.438Z,101207.50
2024-05-09T09:08:45.413Z,101207.27
2024-05-09T09:11:13.695Z,101211.37
2024-05-09T09:13:42.358Z,101211.52
2024-05-09T09:16:11.366Z,101206.71
2024-05-09T09:18:43.914Z,101204.15
2024-05-09T09:21:12.506Z,101207.44
2024-05-09T09:23:40.675Z,101207.36
2024-05-09T09:26:08.884Z,101204.70
2024-05-09T09:28:37.666Z,101200.20
2024-05-09T09:31:06.091Z,101203.27
2024-05-09T09:33:36.283Z,101197.52
2024-05-09T09:36:07.569Z,101196.25
2024-05-09T09:38:37.864Z,101193.15
2024-05-09T09:41:13.331Z,101194.61
2024-05-09T09:43:42.883Z,101185.84
2024-05-09T09:46:14.294Z,101198.48
2024-05-09T09:48:44.728Z,101202.95
2024-05-09T09:51:15.133Z,101201.89
2024-05-09T09:53:44.172Z,101204.21
2024-05-09T09:56:15.760Z,101198.03
2024-05-09T09:58:45.839Z,101194.83
2024-05-09T10:01:14.377Z,101194.91
2024-05-09T10:03:45.608Z,101196.30
2024-05-09T10:06:15.520Z,101192.52
2024-05-09T10:08:46.836Z,101185.07
2024-05-09T10:11:20.583Z,101183.89
2024-05-09T10:13:53.778Z,101183.94
2024-05-09T10:16:25.980Z,101180.45
2024-05-09T10:18:54.740Z,101181.48
2024-05-09T10:21:23.380Z,101172.11
2024-05-09T10:24:03.453Z,101171.36
2024-05-09T10:26:39.091Z,101172.48
2024-05-09T10:29:14.700Z,101173.30
2024-05-09T10:31:44.318Z,101172.64
2024-05-09T10:34:21.032Z,101162.55
2024-05-09T10:36:56.471Z,101170.29
2024-05-09T10:39:34.898Z,101165.08
2024-05-09T10:42:03.950Z,101166.50
2024-05-09T10:44:37.974Z,101160.93
2024-05-09T10:47:06.211Z,101154.47
2024-05-09T10:49:35.410Z,101142.11
2024-05-09T10:52:05.155Z,101149.13
2024-05-09T10:54:40.737Z,101148.76
2024-05-09T10:57:08.988Z,101156.04
2024-05-09T10:59:39.637Z,101154.59
2024-05-09T11:02:08.366Z,101153.39
2024-05-09T11:04:40.052Z,101155.02
2024-05-09T11:07:12.910Z,101146.52
2024-05-09T11:09:43.318Z,101141.28
2024-05-09T11:12:12.197Z,101141.75
2024-05-09T11:14:41.076Z,101142.52
2024-05-09T11:17:10.083Z,101142.02
2024-05-09T11:19:42.074Z,101138.52
2024-05-09T11:22:11.739Z,101130.84
2024-05-09T11:24:41.784Z,101129.19
2024-05-09T11:27:10.509Z,101130.98
2024-05-09T11:29:43.606Z,101131.23
2024-05-09T11:32:13.836Z,101129.36
2024-05-09T11:34:42.971Z,101120.97
2024-05-09T11:37:13.133Z,101119.42
2024-05-09T11:39:42.088Z,101119.61
2024-05-09T11:42:10.419Z,101115.77
2024-05-09T11:44:38.729Z,101113.08
2024-05-09T11:47:08.139Z,101112.54
2024-05-09T11:49:37.642Z,101114.22
2024-05-09T11:52:06.422Z,101109.52
2024-05-09T11:54:34.842Z,101105.83
2024-05-09T11:57:03.758Z,101106.12
2024-05-09T11:59:31.835Z,101107.90
2024-05-09T12:02:00.423Z,101108.52
2024-05-09T12:04:29.465Z,101110.86
2024-05-09T12:06:58.789Z,101102.63
2024-05-09T12:09:27.855Z,101101.87
2024-05-09T12:11:56.620Z,101101.10
2024-05-09T12:14:25.408Z,101097.56
2024-05-09T12:16:53.984Z,101091.45
2024-05-09T12:19:22.500Z,101092.88
2024-05-09T12:21:51.170Z,101091.81
2024-05-09T12:24:19.927Z,101089.73
2024-05-09T12:26:48.511Z,101091.02
2024-05-09T12:29:17.847Z,101087.27
2024-05-09T12:31:46.511Z,101089.21
2024-05-09T12:34:16.357Z,101089.94
2024-05-09T12:36:45.744Z,101086.02
2024-05-09T12:39:14.184Z,101086.38
2024-05-09T12:41:42.667Z,101086.30
2024-05-09T12:44:13.015Z,101077.48
2024-05-09T12:46:41.475Z,101075.73
2024-05-09T12:49:10.350Z,101074.10
2024-05-09T12:51:39.095Z,101072.08
2024-05-09T12:54:07.838Z,101067.86
2024-05-09T12:56:37.624Z,101064.11
2024-05-09T12:59:06.461Z,101056.52
2024-05-09T13:01:38.399Z,101060.33
2024-05-09T13:04:08.031Z,101057.57
2024-05-09T13:06:36.720Z,101056.14
2024-05-09T13:09:06.118Z,101057.40
2024-05-09T13:11:35.333Z,101054.86
2024-05-09T13:14:04.835Z,101052.64
2024-05-09T13:16:33.598Z,101051.69
2024-05-09T13:19:02.087Z,101046.30
2024-05-09T13:21:30.813Z,101044.58
2024-05-09T13:24:00.431Z,101041.44
2024-05-09T13:26:29.668Z,101040.97
2024-05-09T13:28:58.453Z,101038.23
2024-05-09T13:31:27.875Z,101036.98
2024-05-09T13:33:56.684Z,101032.88
2024-05-09T13:36:25.122Z,101029.40
2024-05-09T13:38:53.412Z,101025.63
2024-05-09T13:41:21.699Z,101031.48
2024-05-09T13:43:50.389Z,101029.90
2024-05-09T13:46:19.140Z,101031.94
2024-05-09T13:48:47.667Z,101027.48
2024-05-09T13:51:15.916Z,101024.54
2024-05-09T13:53:44.056Z,101022.55
2024-05-09T13:56:12.891Z,101018.38
2024-05-09T13:58:42.259Z,101015.38
2024-05-09T14:01:10.502Z,101012.14
2024-05-09T14:03:38.870Z,101013.12
2024-05-09T14:06:11.312Z,101013.14
2024-05-09T14:08:41.842Z,101010.73
2024-05-09T14:11:10.075Z,101007.71
2024-05-09T14:13:42.556Z,100999.58
2024-05-09T14:16:13.362Z,100992.35
2024-05-09T14:18:41.711Z,101002.80
2024-05-09T14:21:10.101Z,100998.39
2024-05-09T14:23:38.664Z,100990.92
2024-05-09T14:26:07.453Z,100989.69
2024-05-09T14:28:35.723Z,100989.90
2024-05-09T14:31:05.440Z,100981.81
2024-05-09T14:33:34.488Z,100982.81
2024-05-09T14:36:02.936Z,100978.86
2024-05-09T14:38:32.020Z,100980.73
2024-05-09T14:41:02.659Z,100974.77
2024-05-09T14:43:32.564Z,100971.95
2024-05-09T14:46:01.930Z,100959.89
2024-05-09T14:48:30.549Z,100961.10
2024-05-09T14:50:58.967Z,100960.66
2024-05-09T14:53:28.471Z,100958.33
2024-05-09T14:55:57.486Z,100957.72
2024-05-09T14:58:26.850Z,100952.75
2024-05-09T15:00:55.283Z,100948.89
2024-05-09T15:03:23.805Z,100944.66
2024-05-09T15:05:53.315Z,100944.61
2024-05-09T15:08:21.878Z,100941.33
2024-05-09T15:10:51.022Z,100940.11
2024-05-09T15:13:21.532Z,100941.14
2024-05-09T15:15:50.854Z,100936.50
2024-05-09T15:18:19.313Z,100936.94
2024-05-09T15:20:48.570Z,100938.05
2024-05-09T15:23:17.346Z,100936.42
2024-05-09T15:25:47.538Z,100932.29
2024-05-09T15:28:16.599Z,100924.83
2024-05-09T15:30:46.867Z,100908.49
2024-05-09T15:33:18.812Z,100924.50
2024-05-09T15:35:48.308Z,100919.17
2024-05-09T15:38:18.625Z,100920.38
2024-05-09T15:40:47.274Z,100910.89
2024-05-09T15:43:15.860Z,100909.08
2024-05-09T15:45:45.010Z,100907.72
2024-05-09T15:48:14.379Z,100903.60
2024-05-09T15:50:43.553Z,100905.11
2024-05-09T15:53:13.498Z,100900.98
2024-05-09T15:55:43.519Z,100900.59
2024-05-09T15:58:12.829Z,100897.86
2024-05-09T16:00:44.803Z,100896.02
2024-05-09T16:03:15.723Z,100898.65
2024-05-09T16:05:48.172Z,100893.66
2024-05-09T16:08:18.112Z,100884.30
2024-05-09T16:10:47.724Z,100889.09
2024-05-09T16:13:17.726Z,100888.94
2024-05-09T16:15:46.848Z,100886.52
2024-05-09T16:18:15.646Z,100885.56
2024-05-09T16:20:45.450Z,100873.61
2024-05-09T16:23:15.440Z,100876.30
2024-05-09T16:25:46.033Z,100877.08
2024-05-09T16:28:14.303Z,100873.16
2024-05-09T16:30:42.871Z,100873.73
2024-05-09T16:33:11.996Z,100874.80
2024-05-09T16:35:41.138Z,100873.99
2024-05-09T16:38:09.814Z,100876.39
2024-05-09T16:40:41.252Z,100871.46
2024-05-09T16:43:13.018Z,100873.85
2024-05-09T16:45:45.118Z,100873.92
2024-05-09T16:48:14.533Z,100874.56
2024-05-09T16:50:43.059Z,100874.30
2024-05-09T16:53:11.684Z,100872.41
2024-05-09T16:55:40.435Z,100874.73
2024-05-09T16:58:09.199Z,100872.08
2024-05-09T17:00:42.206Z,100873.75
2024-05-09T17:03:15.174Z,100875.23
2024-05-09T17:05:46.899Z,100873.27
2024-05-09T17:08:20.236Z,100872.55
2024-05-09T17:10:49.635Z,100873.24
2024-05-09T17:13:22.778Z,100873.27
2024-05-09T17:15:51.769Z,100873.95
2024-05-09T17:18:20.279Z,100874.34
2024-05-09T17:20:50.329Z,100873.17
2024-05-09T17:23:18.639Z,100872.48
2024-05-09T17:25:47.045Z,100872.92
2024-05-09T17:28:15.474Z,100873.77
2024-05-09T17:30:44.104Z,100873.80
2024-05-09T17:33:13.279Z,100872.52
2024-05-09T17:35:46.450Z,100875.75
2024-05-09T17:38:16.429Z,100873.23
2024-05-09T17:40:46.902Z,100874.64
2024-05-09T17:43:16.163Z,100872.55
2024-05-09T17:45:45.882Z,100858.25
2024-05-09T17:48:15.710Z,100863.52
2024-05-09T17:50:44.699Z,100866.29
2024-05-09T17:53:14.509Z,100865.96
2024-05-09T17:55:43.505Z,100872.45
2024-05-09T17:58:13.602Z,100867.50
2024-05-09T18:00:42.823Z,100869.65
2024-05-09T18:03:13.250Z,100874.33
2024-05-09T18:05:44.791Z,100874.67
2024-05-09T18:08:15.267Z,100875.09
2024-05-09T18:10:44.792Z,100878.66
2024-05-09T18:13:14.514Z,100872.88
2024-05-09T18:15:45.445Z,100871.92
2024-05-09T18:18:15.932Z,100870.31
2024-05-09T18:20:46.364Z,100873.98
2024-05-09T18:23:17.834Z,100874.81
2024-05-09T18:25:48.481Z,100877.61
2024-05-09T18:28:18.242Z,100877.40
2024-05-09T18:30:48.226Z,100885.44
2024-05-09T18:33:17.625Z,100885.59
2024-05-09T18:35:47.193Z,100886.44
2024-05-09T18:38:18.054Z,100891.02
2024-05-09T18:40:49.385Z,100893.51
2024-05-09T18:43:26.385Z,100888.47
2024-05-09T18:46:00.850Z,100879.56
2024-05-09T18:48:30.604Z,100894.62
2024-05-09T18:50:59.521Z,100901.48
2024-05-09T18:53:29.784Z,100895.92
2024-05-09T18:55:59.654Z,100905.12
2024-05-09T18:58:29.773Z,100902.37
2024-05-09T19:01:00.974Z,100909.09
2024-05-09T19:03:31.304Z,100911.71
2024-05-09T19:06:01.221Z,100915.21
2024-05-09T19:08:31.072Z,100918.52
2024-05-09T19:11:01.372Z,100917.63
2024-05-09T19:13:33.296Z,100920.81
2024-05-09T19:16:05.226Z,100920.20
2024-05-09T19:18:39.071Z,100922.89
2024-05-09T19:21:10.698Z,100919.06
2024-05-09T19:23:47.221Z,100927.54
2024-05-09T19:26:28.019Z,100924.15
2024-05-09T19:29:00.036Z,100924.77
2024-05-09T19:31:30.722Z,100926.67
2024-05-09T19:34:02.440Z,100925.70
2024-05-09T19:36:32.925Z,100927.33
2024-05-09T19:39:06.391Z,100929.27
2024-05-09T19:41:43.685Z,100935.30
2024-05-09T19:44:14.343Z,100938.98
2024-05-09T19:46:44.711Z,100939.86
2024-05-09T19:49:15.460Z,100938.62
2024-05-09T19:51:45.389Z,100941.20
2024-05-09T19:54:16.559Z,100941.38
2024-05-09T19:56:45.907Z,100941.06
2024-05-09T19:59:16.614Z,100941.27
2024-05-09T20:01:46.823Z,100940.02
2024-05-09T20:04:18.060Z,100940.99
2024-05-09T20:06:47.228Z,100940.02
2024-05-09T20:09:16.513Z,100942.98
2024-05-09T20:11:46.131Z,100943.14
2024-05-09T20:14:15.696Z,100941.71
2024-05-09T20:16:46.450Z,100941.56
2024-05-09T20:19:15.708Z,100940.35
2024-05-09T20:21:46.317Z,100939.30
2024-05-09T20:24:16.475Z,100939.50
2024-05-09T20:26:45.289Z,100938.70
2024-05-09T20:29:16.533Z,100940.77
2024-05-09T20:31:48.148Z,100939.77
2024-05-09T20:34:17.617Z,100937.61
2024-05-09T20:36:46.730Z,100936.18
2024-05-09T20:39:15.898Z,100935.59
2024-05-09T20:41:44.792Z,100937.23
2024-05-09T20:44:13.777Z,100936.83
2024-05-09T20:46:42.351Z,100934.50
2024-05-09T20:49:12.282Z,100933.27
2024-05-09T20:51:42.384Z,100935.25
2024-05-09T20:54:11.887Z,100938.02
2024-05-09T20:56:40.384Z,100935.13
2024-05-09T20:59:09.082Z,100940.80
2024-05-09T21:01:37.854Z,100942.77
2024-05-09T21:04:06.951Z,100939.96
2024-05-09T21:06:35.677Z,100939.98
2024-05-09T21:09:04.556Z,100942.27
2024-05-09T21:11:33.048Z,100944.46
2024-05-09T21:14:01.509Z,100941.27
2024-05-09T21:16:34.340Z,100944.67
2024-05-09T21:19:03.115Z,100941.60
2024-05-09T21:21:39.259Z,100942.28
2024-05-09T21:24:08.005Z,100938.40
2024-05-09T21:26:37.533Z,100941.16
2024-05-09T21:29:05.997Z,100941.67
2024-05-09T21:31:34.539Z,100942.17
2024-05-09T21:34:02.791Z,100942.76
2024-05-09T21:36:31.521Z,100941.83
2024-05-09T21:38:59.822Z,100938.52
2024-05-09T21:41:27.898Z,100940.41
2024-05-09T21:43:55.802Z,100939.27
2024-05-09T21:46:25.055Z,100925.13
2024-05-09T21:48:55.696Z,100935.75
2024-05-09T21:51:23.968Z,100936.73
2024-05-09T21:53:52.582Z,100939.13
2024-05-09T21:56:20.729Z,100941.61
2024-05-09T21:58:49.008Z,100939.84
2024-05-09T22:01:17.631Z,100938.79
2024-05-09T22:03:46.123Z,100939.73
2024-05-09T22:06:14.341Z,100937.54
2024-05-09T22:08:42.545Z,100935.35
2024-05-09T22:11:10.568Z,100937.75
2024-05-09T22:13:38.875Z,100939.69
2024-05-09T22:16:07.858Z,100943.48
2024-05-09T22:18:36.078Z,100940.73
2024-05-09T22:21:04.417Z,100937.99
2024-05-09T22:23:32.577Z,100938.88
2024-05-09T22:26:00.756Z,100941.94
2024-05-09T22:28:29.023Z,100938.10
2024-05-09T22:30:57.536Z,100943.69
2024-05-09T22:33:25.822Z,100946.80
2024-05-09T22:35:53.991Z,100945.24
2024-05-09T22:38:22.133Z,100945.77
2024-05-09T22:40:50.301Z,100945.73
2024-05-09T22:43:21.114Z,100941.51
2024-05-09T22:45:51.389Z,100943.75
2024-05-09T22:48:20.221Z,100941.10
2024-05-09T22:50:48.536Z,100942.15
2024-05-09T22:53:17.118Z,100941.09
2024-05-09T22:55:45.190Z,100942.95
2024-05-09T22:58:13.301Z,100937.52
2024-05-09T23:00:41.494Z,100934.87
2024-05-09T23:03:09.726Z,100934.80
2024-05-09T23:05:37.911Z,100932.66
2024-05-09T23:08:06.689Z,100927.97
2024-05-09T23:10:37.614Z,100930.74
2024-05-09T23:13:07.574Z,100927.57
2024-05-09T23:15:38.340Z,100924.86
2024-05-09T23:18:07.453Z,100922.33
2024-05-09T23:20:38.995Z,100918.39
2024-05-09T23:23:10.550Z,100920.05
2024-05-09T23:25:44.007Z,100898.30
2024-05-09T23:28:12.482Z,100916.45
2024-05-09T23:30:41.746Z,100917.58
2024-05-09T23:33:12.904Z,100913.80
2024-05-09T23:35:44.412Z,100913.58
2024-05-09T23:38:13.500Z,100912.66
2024-05-09T23:40:42.817Z,100905.60
2024-05-09T23:43:13.129Z,100907.73
2024-05-09T23:45:42.583Z,100903.48
2024-05-09T23:48:11.535Z,100894.79
2024-05-09T23:50:40.740Z,100905.77
2024-05-09T23:53:10.625Z,100907.32
2024-05-09T23:55:39.289Z,100908.85
2024-05-09T23:58:09.055Z,100909.13
